createdAt,value
2023-03-04T00:04:19.102Z,4.99
2023-03-04T00:09:40.854Z,5.06
2023-03-04T00:15:02.945Z,5.10
2023-03-04T00:20:24.676Z,4.91
2023-03-04T00:25:46.510Z,4.85
2023-03-04T00:31:09.011Z,5.01
2023-03-04T00:36:30.735Z,5.13
2023-03-04T00:41:52.445Z,4.47
2023-03-04T00:47:14.230Z,4.73
2023-03-04T00:52:35.980Z,4.61
2023-03-04T00:57:57.852Z,4.55
2023-03-04T01:03:19.559Z,4.58
2023-03-04T01:08:41.289Z,4.33
2023-03-04T01:14:03.093Z,4.61
2023-03-04T01:19:24.888Z,4.27
2023-03-04T01:24:46.666Z,4.37
2023-03-04T01:30:09.362Z,4.28
2023-03-04T01:35:31.198Z,4.21
2023-03-04T01:40:53.568Z,4.30
2023-03-04T01:46:16.683Z,4.20
2023-03-04T01:51:38.494Z,4.30
2023-03-04T01:57:00.848Z,4.02
2023-03-04T02:02:22.878Z,3.84
2023-03-04T02:07:44.773Z,3.61
2023-03-04T02:13:06.627Z,3.60
2023-03-04T02:18:28.381Z,3.70
2023-03-04T02:24:00.657Z,3.98
2023-03-04T02:29:22.637Z,3.62
2023-03-04T02:34:49.813Z,3.53
2023-03-04T02:40:26.973Z,3.59
2023-03-04T02:45:50.669Z,3.09
2023-03-04T02:51:12.443Z,3.29
2023-03-04T02:56:34.116Z,3.32
2023-03-04T03:01:56.016Z,3.31
2023-03-04T03:07:17.720Z,3.00
2023-03-04T03:12:39.413Z,2.97
2023-03-04T03:18:01.138Z,2.82
2023-03-04T03:23:22.894Z,2.83
2023-03-04T03:28:44.598Z,2.83
2023-03-04T03:34:06.270Z,2.87
2023-03-04T03:39:27.977Z,2.79
2023-03-04T03:44:50.211Z,2.83
2023-03-04T03:50:12.473Z,2.60
2023-03-04T03:55:34.181Z,2.66
2023-03-04T04:00:58.203Z,2.43
2023-03-04T04:06:20.161Z,2.38
2023-03-04T04:11:41.855Z,2.09
2023-03-04T04:17:03.592Z,2.09
2023-03-04T04:22:25.279Z,2.15
2023-03-04T04:27:46.960Z,2.10
2023-03-04T04:33:09.484Z,2.04
2023-03-04T04:38:31.194Z,1.88
2023-03-04T04:43:53.407Z,1.96
2023-03-04T04:49:15.167Z,2.09
2023-03-04T04:54:36.843Z,2.08
2023-03-04T04:59:58.539Z,2.17
2023-03-04T05:05:20.232Z,1.96
2023-03-04T05:10:41.929Z,2.21
2023-03-04T05:16:04.063Z,2.08
2023-03-04T05:21:25.786Z,2.14
2023-03-04T05:26:47.533Z,1.84
2023-03-04T05:32:09.243Z,2.01
2023-03-04T05:37:30.948Z,2.07
2023-03-04T05:42:52.840Z,1.86
2023-03-04T05:48:14.512Z,1.80
2023-03-04T05:53:36.997Z,1.88
2023-03-04T05:58:59.166Z,2.05
2023-03-04T06:04:20.879Z,2.18
2023-03-04T06:09:45.076Z,1.88
2023-03-04T06:15:09.911Z,1.80
2023-03-04T06:20:31.709Z,2.22
2023-03-04T06:25:56.605Z,2.11
2023-03-04T06:31:18.424Z,1.97
2023-03-04T06:36:40.363Z,2.24
2023-03-04T06:42:02.084Z,2.15
2023-03-04T06:47:23.760Z,2.06
2023-03-04T06:58:07.197Z,2.25
2023-03-04T07:03:28.915Z,2.47
2023-03-04T07:08:51.301Z,2.43
2023-03-04T07:14:13.066Z,2.59
2023-03-04T07:19:34.754Z,2.42
2023-03-04T07:24:56.450Z,2.37
2023-03-04T07:30:18.162Z,2.47
2023-03-04T07:35:40.274Z,2.34
2023-03-04T07:41:02.250Z,2.29
2023-03-04T07:46:24.470Z,2.25
2023-03-04T07:51:46.339Z,2.32
2023-03-04T07:57:07.991Z,2.09
2023-03-04T08:02:29.661Z,2.20
2023-03-04T08:07:51.334Z,2.22
2023-03-04T08:13:13.092Z,2.11
2023-03-04T08:18:34.825Z,2.20
2023-03-04T08:23:59.655Z,2.26
2023-03-04T08:29:24.019Z,2.27
2023-03-04T08:34:45.767Z,2.45
2023-03-04T08:40:07.982Z,2.14
2023-03-04T08:45:29.733Z,2.58
2023-03-04T08:50:51.576Z,2.79
2023-03-04T08:56:14.185Z,2.80
2023-03-04T09:01:36.052Z,2.59
2023-03-04T09:06:57.833Z,2.59
2023-03-04T09:12:19.473Z,2.65
2023-03-04T09:17:41.461Z,2.61
2023-03-04T09:23:03.244Z,2.74
2023-03-04T09:28:24.989Z,2.78
2023-03-04T09:33:46.809Z,3.00
2023-03-04T09:39:08.533Z,3.25
2023-03-04T09:44:46.010Z,3.01
2023-03-04T09:50:12.069Z,3.00
2023-03-04T09:55:37.595Z,2.97
2023-03-04T10:01:05.570Z,3.22
2023-03-04T10:06:28.514Z,3.23
2023-03-04T10:12:04.319Z,3.33
2023-03-04T10:17:37.881Z,3.55
2023-03-04T10:23:10.532Z,3.20
2023-03-04T10:28:34.584Z,3.53
2023-03-04T10:33:56.398Z,3.59
2023-03-04T10:39:22.951Z,3.58
2023-03-04T10:45:18.949Z,3.87
2023-03-04T10:50:40.622Z,4.03
2023-03-04T10:56:03.053Z,3.81
2023-03-04T11:01:25.288Z,3.67
2023-03-04T11:06:47.040Z,3.87
2023-03-04T11:12:15.124Z,4.22
2023-03-04T11:17:45.282Z,4.27
2023-03-04T11:23:35.481Z,4.22
2023-03-04T11:29:08.344Z,4.09
2023-03-04T11:34:37.458Z,4.08
2023-03-04T11:40:06.375Z,4.14
2023-03-04T11:45:54.348Z,4.22
2023-03-04T11:51:19.264Z,4.21
2023-03-04T11:56:49.446Z,4.08
2023-03-04T12:02:13.150Z,4.43
2023-03-04T12:07:59.266Z,4.33
2023-03-04T12:13:36.550Z,4.34
2023-03-04T12:19:07.221Z,4.35
2023-03-04T12:24:50.836Z,4.47
2023-03-04T12:30:39.202Z,4.53
2023-03-04T12:36:25.211Z,4.62
2023-03-04T12:41:58.734Z,4.52
2023-03-04T12:47:51.515Z,4.24
2023-03-04T12:53:32.076Z,4.16
2023-03-04T12:58:55.481Z,4.35
2023-03-04T13:04:28.121Z,4.36
2023-03-04T13:09:58.657Z,4.26
2023-03-04T13:15:28.047Z,4.27
2023-03-04T13:21:06.922Z,4.31
2023-03-04T13:26:34.139Z,4.38
2023-03-04T13:32:11.147Z,4.33
2023-03-04T13:37:35.419Z,4.16
2023-03-04T13:43:26.946Z,4.25
2023-03-04T13:48:51.420Z,4.25
2023-03-04T13:54:19.523Z,4.40
2023-03-04T13:59:48.378Z,4.26
2023-03-04T14:05:11.906Z,4.14
2023-03-04T14:10:33.596Z,4.30
2023-03-04T14:15:57.612Z,4.56
2023-03-04T14:21:19.349Z,4.58
2023-03-04T14:26:41.273Z,4.37
2023-03-04T14:32:05.703Z,4.29
2023-03-04T14:37:42.470Z,4.34
2023-03-04T14:43:15.089Z,4.40
2023-03-04T14:48:37.245Z,4.22
2023-03-04T14:53:59.115Z,4.32
2023-03-04T14:59:35.676Z,4.21
2023-03-04T15:05:17.419Z,4.09
2023-03-04T15:10:39.416Z,4.23
2023-03-04T15:16:01.819Z,4.07
2023-03-04T15:21:40.796Z,4.10
2023-03-04T15:27:07.643Z,4.23
2023-03-04T15:32:29.909Z,4.23
2023-03-04T15:37:55.035Z,4.23
2023-03-04T15:43:20.040Z,4.13
2023-03-04T15:48:41.956Z,4.04
2023-03-04T15:54:04.241Z,4.04
2023-03-04T15:59:26.325Z,4.37
2023-03-04T16:04:48.234Z,4.06
2023-03-04T16:10:22.414Z,4.08
2023-03-04T16:15:44.734Z,4.20
2023-03-04T16:21:07.240Z,3.92
2023-03-04T16:26:30.459Z,4.12
2023-03-04T16:31:54.152Z,4.10
2023-03-04T16:37:20.158Z,3.93
2023-03-04T16:42:41.885Z,4.14
2023-03-04T16:48:03.844Z,4.16
2023-03-04T16:53:36.447Z,4.26
2023-03-04T16:59:00.063Z,4.20
2023-03-04T17:04:22.180Z,4.30
2023-03-04T17:09:44.255Z,4.18
2023-03-04T17:15:06.616Z,4.32
2023-03-04T17:20:28.793Z,4.34
2023-03-04T17:25:59.152Z,4.37
2023-03-04T17:31:21.360Z,3.98
2023-03-04T17:36:43.060Z,4.10
2023-03-04T17:42:05.328Z,4.10
2023-03-04T17:47:27.127Z,4.11
2023-03-04T17:52:48.938Z,4.23
2023-03-04T17:58:11.310Z,4.14
2023-03-04T18:03:33.355Z,4.25
2023-03-04T18:08:55.052Z,4.32
2023-03-04T18:14:16.867Z,4.35
2023-03-04T18:19:38.552Z,4.30
2023-03-04T18:25:00.271Z,4.23
2023-03-04T18:30:27.122Z,4.38
2023-03-04T18:35:49.465Z,4.33
2023-03-04T18:41:13.625Z,4.16
2023-03-04T18:46:42.544Z,4.27
2023-03-04T18:52:04.435Z,4.07
2023-03-04T18:57:26.158Z,4.14
2023-03-04T19:03:02.665Z,4.11
2023-03-04T19:08:24.460Z,4.27
2023-03-04T19:13:47.474Z,4.30
2023-03-04T19:19:09.373Z,4.30
2023-03-04T19:24:31.114Z,4.27
2023-03-04T19:29:52.974Z,4.28
2023-03-04T19:35:16.187Z,4.36
2023-03-04T19:40:40.386Z,4.48
2023-03-04T19:46:02.197Z,4.61
2023-03-04T19:51:26.233Z,4.64
2023-03-04T19:56:48.177Z,4.78
2023-03-04T20:02:09.940Z,4.79
2023-03-04T20:07:31.724Z,4.72
2023-03-04T20:12:54.689Z,4.65
2023-03-04T20:18:16.397Z,4.68
2023-03-04T20:23:38.336Z,4.69
2023-03-04T20:29:00.699Z,4.55
2023-03-04T20:34:22.848Z,4.62
2023-03-04T20:39:44.625Z,4.63
2023-03-04T20:45:07.021Z,4.72
2023-03-04T20:50:28.976Z,4.55
2023-03-04T20:55:50.701Z,4.55
2023-03-04T21:01:15.683Z,4.69
2023-03-04T21:06:38.639Z,4.69
2023-03-04T21:12:01.215Z,4.62
2023-03-04T21:17:24.648Z,4.67
2023-03-04T21:22:46.565Z,4.74
2023-03-04T21:28:08.263Z,4.75
2023-03-04T21:33:34.661Z,4.63
2023-03-04T21:38:56.563Z,4.56
2023-03-04T21:44:27.830Z,4.58
2023-03-04T21:49:55.227Z,4.61
2023-03-04T21:55:17.071Z,4.74
2023-03-04T22:00:38.885Z,4.77
2023-03-04T22:06:05.094Z,4.78
2023-03-04T22:11:27.752Z,4.60
2023-03-04T22:16:55.834Z,4.72
2023-03-04T22:22:18.923Z,4.59
2023-03-04T22:27:40.750Z,4.61
2023-03-04T22:33:02.576Z,4.67
2023-03-04T22:38:24.388Z,4.59
2023-03-04T22:43:46.522Z,4.48
2023-03-04T22:49:10.171Z,4.56
2023-03-04T22:54:32.003Z,4.67
2023-03-04T22:59:53.890Z,4.75
2023-03-04T23:05:16.631Z,4.57
2023-03-04T23:10:41.520Z,4.54
2023-03-04T23:16:06.227Z,4.55
2023-03-04T23:21:33.832Z,4.32
2023-03-04T23:26:55.563Z,4.46
2023-03-04T23:32:17.310Z,4.33
2023-03-04T23:37:39.228Z,4.37
2023-03-04T23:43:01.107Z,4.31
2023-03-04T23:48:22.811Z,4.41
2023-03-04T23:53:45.519Z,4.38
2023-03-04T23:59:07.783Z,4.42
